sensor_id;sensor_type;location;lat;lon;timestamp;temperature;humidity
66035;HTU21D;52805;51.074;5.842;2022-09-09T00:03:47;17.38;83.90
66035;HTU21D;52805;51.074;5.842;2022-09-09T00:06:32;17.34;83.91
66035;HTU21D;52805;51.074;5.842;2022-09-09T00:09:10;17.32;83.94
66035;HTU21D;52805;51.074;5.842;2022-09-09T00:11:51;17.31;84.07
66035;HTU21D;52805;51.074;5.842;2022-09-09T00:14:39;17.29;84.15
66035;HTU21D;52805;51.074;5.842;2022-09-09T00:17:14;17.26;84.29
66035;HTU21D;52805;51.074;5.842;2022-09-09T00:23:28;17.23;84.55
66035;HTU21D;52805;51.074;5.842;2022-09-09T00:26:09;17.22;84.55
66035;HTU21D;52805;51.074;5.842;2022-09-09T00:28:55;17.24;84.39
66035;HTU21D;52805;51.074;5.842;2022-09-09T00:31:27;17.21;84.48
66035;HTU21D;52805;51.074;5.842;2022-09-09T00:33:55;17.24;84.44
66035;HTU21D;52805;51.074;5.842;2022-09-09T00:36:26;17.23;84.40
66035;HTU21D;52805;51.074;5.842;2022-09-09T00:39:01;17.23;84.36
66035;HTU21D;52805;51.074;5.842;2022-09-09T00:47:45;17.23;84.16
66035;HTU21D;52805;51.074;5.842;2022-09-09T00:53:10;17.25;84.04
66035;HTU21D;52805;51.074;5.842;2022-09-09T00:55:45;17.25;84.00
66035;HTU21D;52805;51.074;5.842;2022-09-09T00:58:13;17.21;84.02
66035;HTU21D;52805;51.074;5.842;2022-09-09T01:01:03;17.22;84.00
66035;HTU21D;52805;51.074;5.842;2022-09-09T01:03:54;17.19;84.07
66035;HTU21D;52805;51.074;5.842;2022-09-09T01:06:33;17.23;83.94
66035;HTU21D;52805;51.074;5.842;2022-09-09T01:09:32;17.19;83.93
66035;HTU21D;52805;51.074;5.842;2022-09-09T01:14:48;17.17;83.91
66035;HTU21D;52805;51.074;5.842;2022-09-09T01:17:28;17.17;83.83
66035;HTU21D;52805;51.074;5.842;2022-09-09T01:20:10;17.17;83.81
66035;HTU21D;52805;51.074;5.842;2022-09-09T01:28:17;17.09;84.23
66035;HTU21D;52805;51.074;5.842;2022-09-09T01:30:44;17.06;84.41
66035;HTU21D;52805;51.074;5.842;2022-09-09T01:33:17;17.05;84.45
66035;HTU21D;52805;51.074;5.842;2022-09-09T01:38:49;17.03;84.67
66035;HTU21D;52805;51.074;5.842;2022-09-09T01:41:17;17.02;84.63
66035;HTU21D;52805;51.074;5.842;2022-09-09T01:43:49;17.01;84.77
66035;HTU21D;52805;51.074;5.842;2022-09-09T01:46:16;16.99;84.88
66035;HTU21D;52805;51.074;5.842;2022-09-09T01:48:43;16.98;84.88
66035;HTU21D;52805;51.074;5.842;2022-09-09T01:51:10;16.95;84.91
66035;HTU21D;52805;51.074;5.842;2022-09-09T01:53:39;16.95;84.88
66035;HTU21D;52805;51.074;5.842;2022-09-09T01:56:33;16.90;85.07
66035;HTU21D;52805;51.074;5.842;2022-09-09T02:02:10;16.90;84.99
66035;HTU21D;52805;51.074;5.842;2022-09-09T02:04:44;16.90;84.97
66035;HTU21D;52805;51.074;5.842;2022-09-09T02:09:57;16.90;85.03
66035;HTU21D;52805;51.074;5.842;2022-09-09T02:12:27;16.93;84.93
66035;HTU21D;52805;51.074;5.842;2022-09-09T02:15:05;16.95;84.71
66035;HTU21D;52805;51.074;5.842;2022-09-09T02:17:42;16.98;84.74
66035;HTU21D;52805;51.074;5.842;2022-09-09T02:20:14;16.99;84.69
66035;HTU21D;52805;51.074;5.842;2022-09-09T02:22:50;17.00;84.68
66035;HTU21D;52805;51.074;5.842;2022-09-09T02:25:22;17.05;84.63
66035;HTU21D;52805;51.074;5.842;2022-09-09T02:27:51;17.01;84.73
66035;HTU21D;52805;51.074;5.842;2022-09-09T02:30:19;17.07;84.45
66035;HTU21D;52805;51.074;5.842;2022-09-09T02:32:57;17.03;84.68
66035;HTU21D;52805;51.074;5.842;2022-09-09T02:35:39;17.03;84.76
66035;HTU21D;52805;51.074;5.842;2022-09-09T02:38:10;17.01;84.89
66035;HTU21D;52805;51.074;5.842;2022-09-09T02:40:40;17.04;84.82
66035;HTU21D;52805;51.074;5.842;2022-09-09T02:43:06;17.05;84.67
66035;HTU21D;52805;51.074;5.842;2022-09-09T02:51:35;17.06;84.82
66035;HTU21D;52805;51.074;5.842;2022-09-09T02:57:22;17.09;84.69
66035;HTU21D;52805;51.074;5.842;2022-09-09T02:59:49;17.10;84.71
66035;HTU21D;52805;51.074;5.842;2022-09-09T03:02:18;17.09;84.84
66035;HTU21D;52805;51.074;5.842;2022-09-09T03:04:47;17.10;84.97
66035;HTU21D;52805;51.074;5.842;2022-09-09T03:07:17;17.15;85.03
66035;HTU21D;52805;51.074;5.842;2022-09-09T03:09:44;17.15;85.13
66035;HTU21D;52805;51.074;5.842;2022-09-09T03:12:10;17.14;85.21
66035;HTU21D;52805;51.074;5.842;2022-09-09T03:14:38;17.14;85.21
66035;HTU21D;52805;51.074;5.842;2022-09-09T03:17:07;17.16;85.12
66035;HTU21D;52805;51.074;5.842;2022-09-09T03:19:39;17.16;85.06
66035;HTU21D;52805;51.074;5.842;2022-09-09T03:22:10;17.16;85.10
66035;HTU21D;52805;51.074;5.842;2022-09-09T03:24:37;17.14;85.15
66035;HTU21D;52805;51.074;5.842;2022-09-09T03:27:04;17.11;85.23
66035;HTU21D;52805;51.074;5.842;2022-09-09T03:29:30;17.11;85.29
66035;HTU21D;52805;51.074;5.842;2022-09-09T03:31:58;17.10;85.32
66035;HTU21D;52805;51.074;5.842;2022-09-09T03:34:24;17.11;85.39
66035;HTU21D;52805;51.074;5.842;2022-09-09T03:36:49;17.13;85.28
66035;HTU21D;52805;51.074;5.842;2022-09-09T03:39:16;17.14;85.18
66035;HTU21D;52805;51.074;5.842;2022-09-09T03:41:42;17.14;85.16
66035;HTU21D;52805;51.074;5.842;2022-09-09T03:44:11;17.16;84.92
66035;HTU21D;52805;51.074;5.842;2022-09-09T03:46:40;17.15;84.86
66035;HTU21D;52805;51.074;5.842;2022-09-09T03:49:05;17.15;84.79
66035;HTU21D;52805;51.074;5.842;2022-09-09T03:51:31;17.17;84.64
66035;HTU21D;52805;51.074;5.842;2022-09-09T03:53:59;17.18;84.35
66035;HTU21D;52805;51.074;5.842;2022-09-09T03:56:27;17.18;84.42
66035;HTU21D;52805;51.074;5.842;2022-09-09T03:58:52;17.17;84.49
66035;HTU21D;52805;51.074;5.842;2022-09-09T04:01:18;17.18;84.29
66035;HTU21D;52805;51.074;5.842;2022-09-09T04:03:44;17.21;84.19
66035;HTU21D;52805;51.074;5.842;2022-09-09T04:06:12;17.20;84.28
66035;HTU21D;52805;51.074;5.842;2022-09-09T04:08:41;17.22;84.21
66035;HTU21D;52805;51.074;5.842;2022-09-09T04:11:07;17.23;84.22
66035;HTU21D;52805;51.074;5.842;2022-09-09T04:13:36;17.26;84.08
66035;HTU21D;52805;51.074;5.842;2022-09-09T04:16:08;17.29;84.01
66035;HTU21D;52805;51.074;5.842;2022-09-09T04:18:36;17.31;83.92
66035;HTU21D;52805;51.074;5.842;2022-09-09T04:21:02;17.35;83.78
66035;HTU21D;52805;51.074;5.842;2022-09-09T04:23:30;17.35;83.61
66035;HTU21D;52805;51.074;5.842;2022-09-09T04:25:59;17.32;83.68
66035;HTU21D;52805;51.074;5.842;2022-09-09T04:28:28;17.35;83.65
66035;HTU21D;52805;51.074;5.842;2022-09-09T04:30:55;17.32;83.64
66035;HTU21D;52805;51.074;5.842;2022-09-09T04:33:25;17.35;83.59
66035;HTU21D;52805;51.074;5.842;2022-09-09T04:35:52;17.38;83.39
66035;HTU21D;52805;51.074;5.842;2022-09-09T04:38:20;17.39;83.41
66035;HTU21D;52805;51.074;5.842;2022-09-09T04:40:49;17.35;83.56
66035;HTU21D;52805;51.074;5.842;2022-09-09T04:43:15;17.34;83.53
66035;HTU21D;52805;51.074;5.842;2022-09-09T04:45:46;17.31;83.52
66035;HTU21D;52805;51.074;5.842;2022-09-09T04:48:12;17.33;83.45
66035;HTU21D;52805;51.074;5.842;2022-09-09T04:50:38;17.32;83.45
66035;HTU21D;52805;51.074;5.842;2022-09-09T04:53:06;17.32;83.46
66035;HTU21D;52805;51.074;5.842;2022-09-09T04:55:35;17.31;83.42
66035;HTU21D;52805;51.074;5.842;2022-09-09T04:58:05;17.32;83.29
66035;HTU21D;52805;51.074;5.842;2022-09-09T05:00:32;17.28;83.33
66035;HTU21D;52805;51.074;5.842;2022-09-09T05:03:05;17.23;83.51
66035;HTU21D;52805;51.074;5.842;2022-09-09T05:05:32;17.21;83.44
66035;HTU21D;52805;51.074;5.842;2022-09-09T05:08:06;17.18;83.39
66035;HTU21D;52805;51.074;5.842;2022-09-09T05:10:37;17.18;83.29
66035;HTU21D;52805;51.074;5.842;2022-09-09T05:13:04;17.13;83.55
66035;HTU21D;52805;51.074;5.842;2022-09-09T05:15:30;17.10;83.64
66035;HTU21D;52805;51.074;5.842;2022-09-09T05:18:00;17.13;83.68
66035;HTU21D;52805;51.074;5.842;2022-09-09T05:20:28;17.13;83.70
66035;HTU21D;52805;51.074;5.842;2022-09-09T05:22:55;17.11;83.63
66035;HTU21D;52805;51.074;5.842;2022-09-09T05:25:24;17.15;83.51
66035;HTU21D;52805;51.074;5.842;2022-09-09T05:27:53;17.14;83.58
66035;HTU21D;52805;51.074;5.842;2022-09-09T05:30:20;17.19;83.44
66035;HTU21D;52805;51.074;5.842;2022-09-09T05:32:45;17.19;83.23
66035;HTU21D;52805;51.074;5.842;2022-09-09T05:35:12;17.20;83.29
66035;HTU21D;52805;51.074;5.842;2022-09-09T05:37:38;17.21;83.23
66035;HTU21D;52805;51.074;5.842;2022-09-09T05:40:05;17.29;82.81
66035;HTU21D;52805;51.074;5.842;2022-09-09T05:42:31;17.25;82.97
66035;HTU21D;52805;51.074;5.842;2022-09-09T05:44:58;17.24;82.75
66035;HTU21D;52805;51.074;5.842;2022-09-09T05:47:24;17.21;82.85
66035;HTU21D;52805;51.074;5.842;2022-09-09T05:49:54;17.22;82.77
66035;HTU21D;52805;51.074;5.842;2022-09-09T05:52:20;17.21;82.84
66035;HTU21D;52805;51.074;5.842;2022-09-09T05:54:46;17.21;82.88
66035;HTU21D;52805;51.074;5.842;2022-09-09T05:57:12;17.24;82.72
66035;HTU21D;52805;51.074;5.842;2022-09-09T05:59:37;17.24;82.66
66035;HTU21D;52805;51.074;5.842;2022-09-09T06:02:03;17.30;82.47
66035;HTU21D;52805;51.074;5.842;2022-09-09T06:04:33;17.33;82.25
66035;HTU21D;52805;51.074;5.842;2022-09-09T06:07:00;17.32;82.29
66035;HTU21D;52805;51.074;5.842;2022-09-09T06:09:26;17.34;82.04
66035;HTU21D;52805;51.074;5.842;2022-09-09T06:11:52;17.33;81.91
66035;HTU21D;52805;51.074;5.842;2022-09-09T06:14:20;17.40;81.85
66035;HTU21D;52805;51.074;5.842;2022-09-09T06:16:48;17.41;81.83
66035;HTU21D;52805;51.074;5.842;2022-09-09T06:19:22;17.46;81.74
66035;HTU21D;52805;51.074;5.842;2022-09-09T06:21:50;17.54;81.66
66035;HTU21D;52805;51.074;5.842;2022-09-09T06:24:16;17.63;81.46
66035;HTU21D;52805;51.074;5.842;2022-09-09T06:26:44;17.73;81.30
66035;HTU21D;52805;51.074;5.842;2022-09-09T06:29:13;17.81;81.06
66035;HTU21D;52805;51.074;5.842;2022-09-09T06:31:41;17.88;80.71
66035;HTU21D;52805;51.074;5.842;2022-09-09T06:34:13;17.93;80.56
66035;HTU21D;52805;51.074;5.842;2022-09-09T06:36:41;17.94;80.30
66035;HTU21D;52805;51.074;5.842;2022-09-09T06:39:08;17.95;80.33
66035;HTU21D;52805;51.074;5.842;2022-09-09T06:41:37;17.98;80.24
66035;HTU21D;52805;51.074;5.842;2022-09-09T06:44:05;18.05;80.04
66035;HTU21D;52805;51.074;5.842;2022-09-09T06:46:38;18.06;79.97
66035;HTU21D;52805;51.074;5.842;2022-09-09T06:49:05;18.13;79.69
66035;HTU21D;52805;51.074;5.842;2022-09-09T06:51:34;18.12;79.40
66035;HTU21D;52805;51.074;5.842;2022-09-09T06:54:03;18.10;79.02
66035;HTU21D;52805;51.074;5.842;2022-09-09T06:56:32;18.08;79.24
66035;HTU21D;52805;51.074;5.842;2022-09-09T06:59:02;18.10;79.17
66035;HTU21D;52805;51.074;5.842;2022-09-09T07:01:32;18.10;79.33
66035;HTU21D;52805;51.074;5.842;2022-09-09T07:04:01;18.12;79.11
66035;HTU21D;52805;51.074;5.842;2022-09-09T07:06:33;18.14;78.93
66035;HTU21D;52805;51.074;5.842;2022-09-09T07:09:04;18.09;78.76
66035;HTU21D;52805;51.074;5.842;2022-09-09T07:11:33;18.04;79.01
66035;HTU21D;52805;51.074;5.842;2022-09-09T07:14:00;18.04;78.90
66035;HTU21D;52805;51.074;5.842;2022-09-09T07:16:27;18.08;78.59
66035;HTU21D;52805;51.074;5.842;2022-09-09T07:18:56;18.06;78.74
66035;HTU21D;52805;51.074;5.842;2022-09-09T07:21:29;18.07;78.94
66035;HTU21D;52805;51.074;5.842;2022-09-09T07:23:55;18.09;78.85
66035;HTU21D;52805;51.074;5.842;2022-09-09T07:26:25;18.13;78.69
66035;HTU21D;52805;51.074;5.842;2022-09-09T07:28:53;18.19;78.40
66035;HTU21D;52805;51.074;5.842;2022-09-09T07:31:28;18.21;78.27
66035;HTU21D;52805;51.074;5.842;2022-09-09T07:33:57;18.25;78.34
66035;HTU21D;52805;51.074;5.842;2022-09-09T07:36:28;18.29;77.72
66035;HTU21D;52805;51.074;5.842;2022-09-09T07:38:58;18.38;77.68
66035;HTU21D;52805;51.074;5.842;2022-09-09T07:41:40;18.50;77.27
66035;HTU21D;52805;51.074;5.842;2022-09-09T07:44:10;18.59;76.55
66035;HTU21D;52805;51.074;5.842;2022-09-09T07:46:38;18.61;76.51
66035;HTU21D;52805;51.074;5.842;2022-09-09T07:49:10;18.67;76.63
66035;HTU21D;52805;51.074;5.842;2022-09-09T07:51:42;18.76;75.95
66035;HTU21D;52805;51.074;5.842;2022-09-09T07:54:11;18.73;76.02
66035;HTU21D;52805;51.074;5.842;2022-09-09T07:56:40;18.81;75.45
66035;HTU21D;52805;51.074;5.842;2022-09-09T07:59:07;18.76;75.27
66035;HTU21D;52805;51.074;5.842;2022-09-09T08:01:37;18.70;75.20
66035;HTU21D;52805;51.074;5.842;2022-09-09T08:04:07;18.69;74.60
66035;HTU21D;52805;51.074;5.842;2022-09-09T08:06:38;18.67;74.71
66035;HTU21D;52805;51.074;5.842;2022-09-09T08:09:07;18.66;74.68
66035;HTU21D;52805;51.074;5.842;2022-09-09T08:11:34;18.72;74.44
66035;HTU21D;52805;51.074;5.842;2022-09-09T08:14:02;18.77;74.44
66035;HTU21D;52805;51.074;5.842;2022-09-09T08:16:32;18.82;74.07
66035;HTU21D;52805;51.074;5.842;2022-09-09T08:18:59;18.86;74.00
66035;HTU21D;52805;51.074;5.842;2022-09-09T08:21:30;18.93;73.89
66035;HTU21D;52805;51.074;5.842;2022-09-09T08:24:00;19.00;73.51
66035;HTU21D;52805;51.074;5.842;2022-09-09T08:26:30;19.06;73.32
66035;HTU21D;52805;51.074;5.842;2022-09-09T08:28:58;19.08;72.74
66035;HTU21D;52805;51.074;5.842;2022-09-09T08:31:47;19.11;72.22
66035;HTU21D;52805;51.074;5.842;2022-09-09T08:34:13;19.21;72.61
66035;HTU21D;52805;51.074;5.842;2022-09-09T08:36:43;19.32;72.32
66035;HTU21D;52805;51.074;5.842;2022-09-09T08:39:12;19.43;71.68
66035;HTU21D;52805;51.074;5.842;2022-09-09T08:50:22;19.76;70.22
66035;HTU21D;52805;51.074;5.842;2022-09-09T08:53:10;19.74;70.54
66035;HTU21D;52805;51.074;5.842;2022-09-09T08:55:59;19.80;69.96
66035;HTU21D;52805;51.074;5.842;2022-09-09T08:58:46;19.79;69.49
66035;HTU21D;52805;51.074;5.842;2022-09-09T09:12:42;19.67;69.29
66035;HTU21D;52805;51.074;5.842;2022-09-09T09:15:25;19.46;69.78
66035;HTU21D;52805;51.074;5.842;2022-09-09T09:17:53;19.41;70.10
66035;HTU21D;52805;51.074;5.842;2022-09-09T09:20:32;19.35;70.45
66035;HTU21D;52805;51.074;5.842;2022-09-09T09:23:03;19.38;70.52
66035;HTU21D;52805;51.074;5.842;2022-09-09T09:25:40;19.48;70.30
66035;HTU21D;52805;51.074;5.842;2022-09-09T09:28:18;19.63;70.54
66035;HTU21D;52805;51.074;5.842;2022-09-09T09:31:07;19.86;70.25
66035;HTU21D;52805;51.074;5.842;2022-09-09T09:33:52;20.04;69.12
66035;HTU21D;52805;51.074;5.842;2022-09-09T09:36:24;20.06;68.86
66035;HTU21D;52805;51.074;5.842;2022-09-09T09:39:09;20.11;68.93
66035;HTU21D;52805;51.074;5.842;2022-09-09T09:41:42;20.13;68.70
66035;HTU21D;52805;51.074;5.842;2022-09-09T09:44:43;20.09;68.48
66035;HTU21D;52805;51.074;5.842;2022-09-09T09:47:17;20.11;68.19
66035;HTU21D;52805;51.074;5.842;2022-09-09T09:49:58;20.11;68.17
66035;HTU21D;52805;51.074;5.842;2022-09-09T09:52:28;20.14;68.33
66035;HTU21D;52805;51.074;5.842;2022-09-09T09:54:58;20.20;68.10
66035;HTU21D;52805;51.074;5.842;2022-09-09T09:57:29;20.28;67.65
66035;HTU21D;52805;51.074;5.842;2022-09-09T10:03:19;20.04;68.24
66035;HTU21D;52805;51.074;5.842;2022-09-09T10:05:46;20.01;68.49
66035;HTU21D;52805;51.074;5.842;2022-09-09T10:08:15;19.92;68.82
66035;HTU21D;52805;51.074;5.842;2022-09-09T10:16:41;19.80;71.00
66035;HTU21D;52805;51.074;5.842;2022-09-09T10:19:30;19.89;70.87
66035;HTU21D;52805;51.074;5.842;2022-09-09T10:22:19;19.99;70.39
66035;HTU21D;52805;51.074;5.842;2022-09-09T10:27:54;20.06;70.01
66035;HTU21D;52805;51.074;5.842;2022-09-09T10:33:16;19.98;69.83
66035;HTU21D;52805;51.074;5.842;2022-09-09T10:36:20;19.94;69.43
66035;HTU21D;52805;51.074;5.842;2022-09-09T10:39:00;19.88;69.24
66035;HTU21D;52805;51.074;5.842;2022-09-09T10:42:05;19.89;69.00
66035;HTU21D;52805;51.074;5.842;2022-09-09T10:47:34;19.86;69.25
66035;HTU21D;52805;51.074;5.842;2022-09-09T10:50:29;19.90;68.89
66035;HTU21D;52805;51.074;5.842;2022-09-09T10:53:13;19.84;68.78
66035;HTU21D;52805;51.074;5.842;2022-09-09T10:55:59;19.79;68.83
66035;HTU21D;52805;51.074;5.842;2022-09-09T11:01:24;19.74;69.00
66035;HTU21D;52805;51.074;5.842;2022-09-09T11:04:02;19.75;69.22
66035;HTU21D;52805;51.074;5.842;2022-09-09T11:06:39;19.72;69.75
66035;HTU21D;52805;51.074;5.842;2022-09-09T11:09:19;19.69;70.68
66035;HTU21D;52805;51.074;5.842;2022-09-09T11:11:57;19.50;71.63
66035;HTU21D;52805;51.074;5.842;2022-09-09T11:14:42;19.35;72.80
66035;HTU21D;52805;51.074;5.842;2022-09-09T11:17:22;19.20;73.90
66035;HTU21D;52805;51.074;5.842;2022-09-09T11:19:49;19.01;74.99
66035;HTU21D;52805;51.074;5.842;2022-09-09T11:22:32;18.94;75.50
66035;HTU21D;52805;51.074;5.842;2022-09-09T11:44:37;19.75;76.86
66035;HTU21D;52805;51.074;5.842;2022-09-09T11:47:03;19.87;77.02
66035;HTU21D;52805;51.074;5.842;2022-09-09T11:52:24;20.07;76.67
66035;HTU21D;52805;51.074;5.842;2022-09-09T11:54:55;20.22;76.34
66035;HTU21D;52805;51.074;5.842;2022-09-09T11:57:39;20.32;75.71
66035;HTU21D;52805;51.074;5.842;2022-09-09T12:00:06;20.32;74.92
66035;HTU21D;52805;51.074;5.842;2022-09-09T12:02:48;20.35;74.57
66035;HTU21D;52805;51.074;5.842;2022-09-09T12:05:15;20.39;74.92
66035;HTU21D;52805;51.074;5.842;2022-09-09T12:07:51;20.55;74.02
66035;HTU21D;52805;51.074;5.842;2022-09-09T12:10:29;20.60;73.34
66035;HTU21D;52805;51.074;5.842;2022-09-09T12:12:55;20.59;72.96
66035;HTU21D;52805;51.074;5.842;2022-09-09T12:15:33;20.61;72.94
66035;HTU21D;52805;51.074;5.842;2022-09-09T12:17:58;20.64;72.76
66035;HTU21D;52805;51.074;5.842;2022-09-09T12:20:38;20.77;72.72
66035;HTU21D;52805;51.074;5.842;2022-09-09T12:26:20;20.81;72.26
66035;HTU21D;52805;51.074;5.842;2022-09-09T12:28:57;20.85;72.49
66035;HTU21D;52805;51.074;5.842;2022-09-09T12:34:34;21.16;72.11
66035;HTU21D;52805;51.074;5.842;2022-09-09T12:39:56;21.21;71.64
66035;HTU21D;52805;51.074;5.842;2022-09-09T12:42:25;21.21;71.38
66035;HTU21D;52805;51.074;5.842;2022-09-09T12:44:59;21.17;71.86
66035;HTU21D;52805;51.074;5.842;2022-09-09T12:48:19;21.16;71.84
66035;HTU21D;52805;51.074;5.842;2022-09-09T12:50:30;21.13;71.75
66035;HTU21D;52805;51.074;5.842;2022-09-09T12:53:28;21.00;71.21
66035;HTU21D;52805;51.074;5.842;2022-09-09T12:56:00;20.85;71.24
66035;HTU21D;52805;51.074;5.842;2022-09-09T12:58:29;20.60;71.55
66035;HTU21D;52805;51.074;5.842;2022-09-09T13:01:01;20.26;72.75
66035;HTU21D;52805;51.074;5.842;2022-09-09T13:03:30;19.87;73.27
66035;HTU21D;52805;51.074;5.842;2022-09-09T13:06:19;19.42;74.42
66035;HTU21D;52805;51.074;5.842;2022-09-09T13:08:45;19.27;74.64
66035;HTU21D;52805;51.074;5.842;2022-09-09T13:11:18;19.01;75.13
66035;HTU21D;52805;51.074;5.842;2022-09-09T13:13:53;18.89;75.73
66035;HTU21D;52805;51.074;5.842;2022-09-09T13:16:23;18.82;75.95
66035;HTU21D;52805;51.074;5.842;2022-09-09T13:18:51;18.78;76.40
66035;HTU21D;52805;51.074;5.842;2022-09-09T13:21:18;18.70;76.48
66035;HTU21D;52805;51.074;5.842;2022-09-09T13:23:49;18.67;76.47
66035;HTU21D;52805;51.074;5.842;2022-09-09T13:28:48;18.63;77.02
66035;HTU21D;52805;51.074;5.842;2022-09-09T13:31:32;18.73;76.92
66035;HTU21D;52805;51.074;5.842;2022-09-09T13:33:58;18.77;76.82
66035;HTU21D;52805;51.074;5.842;2022-09-09T13:36:33;18.85;76.66
66035;HTU21D;52805;51.074;5.842;2022-09-09T13:39:02;18.92;76.58
66035;HTU21D;52805;51.074;5.842;2022-09-09T13:41:35;19.01;76.60
66035;HTU21D;52805;51.074;5.842;2022-09-09T13:44:03;19.10;76.60
66035;HTU21D;52805;51.074;5.842;2022-09-09T13:46:39;19.18;76.47
66035;HTU21D;52805;51.074;5.842;2022-09-09T13:51:43;19.25;76.71
66035;HTU21D;52805;51.074;5.842;2022-09-09T13:54:13;19.38;76.76
66035;HTU21D;52805;51.074;5.842;2022-09-09T13:56:41;19.48;76.94
66035;HTU21D;52805;51.074;5.842;2022-09-09T13:59:16;19.58;77.02
66035;HTU21D;52805;51.074;5.842;2022-09-09T14:01:44;19.73;77.13
66035;HTU21D;52805;51.074;5.842;2022-09-09T14:04:11;19.88;77.10
66035;HTU21D;52805;51.074;5.842;2022-09-09T14:06:38;20.05;77.17
66035;HTU21D;52805;51.074;5.842;2022-09-09T14:09:05;20.20;77.08
66035;HTU21D;52805;51.074;5.842;2022-09-09T14:11:40;20.28;77.22
66035;HTU21D;52805;51.074;5.842;2022-09-09T14:14:06;20.40;77.18
66035;HTU21D;52805;51.074;5.842;2022-09-09T14:16:32;20.50;76.87
66035;HTU21D;52805;51.074;5.842;2022-09-09T14:18:58;20.59;76.96
66035;HTU21D;52805;51.074;5.842;2022-09-09T14:21:25;20.74;76.96
66035;HTU21D;52805;51.074;5.842;2022-09-09T14:23:52;20.93;76.87
66035;HTU21D;52805;51.074;5.842;2022-09-09T14:26:23;21.09;76.54
66035;HTU21D;52805;51.074;5.842;2022-09-09T14:28:49;21.24;75.76
66035;HTU21D;52805;51.074;5.842;2022-09-09T14:31:15;21.35;75.21
66035;HTU21D;52805;51.074;5.842;2022-09-09T14:33:44;21.51;73.99
66035;HTU21D;52805;51.074;5.842;2022-09-09T14:36:10;21.55;73.37
66035;HTU21D;52805;51.074;5.842;2022-09-09T14:38:37;21.51;72.64
66035;HTU21D;52805;51.074;5.842;2022-09-09T14:41:10;21.44;72.42
66035;HTU21D;52805;51.074;5.842;2022-09-09T14:43:40;21.48;72.26
66035;HTU21D;52805;51.074;5.842;2022-09-09T14:46:11;21.64;71.66
66035;HTU21D;52805;51.074;5.842;2022-09-09T14:48:37;21.81;70.94
66035;HTU21D;52805;51.074;5.842;2022-09-09T14:53:36;22.01;70.88
66035;HTU21D;52805;51.074;5.842;2022-09-09T14:56:09;22.18;69.42
66035;HTU21D;52805;51.074;5.842;2022-09-09T14:58:36;22.12;68.64
66035;HTU21D;52805;51.074;5.842;2022-09-09T15:01:12;22.03;68.42
66035;HTU21D;52805;51.074;5.842;2022-09-09T15:03:39;21.95;69.07
66035;HTU21D;52805;51.074;5.842;2022-09-09T15:06:13;22.05;68.13
66035;HTU21D;52805;51.074;5.842;2022-09-09T15:08:41;21.96;68.01
66035;HTU21D;52805;51.074;5.842;2022-09-09T15:11:09;21.82;68.43
66035;HTU21D;52805;51.074;5.842;2022-09-09T15:13:40;21.73;68.58
66035;HTU21D;52805;51.074;5.842;2022-09-09T15:16:06;21.70;68.78
66035;HTU21D;52805;51.074;5.842;2022-09-09T15:18:33;21.73;69.04
66035;HTU21D;52805;51.074;5.842;2022-09-09T15:21:02;21.76;68.57
66035;HTU21D;52805;51.074;5.842;2022-09-09T15:23:35;21.85;68.77
66035;HTU21D;52805;51.074;5.842;2022-09-09T15:26:01;22.02;68.36
66035;HTU21D;52805;51.074;5.842;2022-09-09T15:28:28;22.11;67.91
66035;HTU21D;52805;51.074;5.842;2022-09-09T15:30:54;22.21;67.48
66035;HTU21D;52805;51.074;5.842;2022-09-09T15:33:22;22.21;66.74
66035;HTU21D;52805;51.074;5.842;2022-09-09T15:35:48;22.12;66.59
66035;HTU21D;52805;51.074;5.842;2022-09-09T15:38:15;22.07;66.33
66035;HTU21D;52805;51.074;5.842;2022-09-09T15:40:43;22.03;66.00
66035;HTU21D;52805;51.074;5.842;2022-09-09T15:43:09;22.04;66.01
66035;HTU21D;52805;51.074;5.842;2022-09-09T15:45:37;21.97;66.10
66035;HTU21D;52805;51.074;5.842;2022-09-09T15:48:04;21.92;66.30
66035;HTU21D;52805;51.074;5.842;2022-09-09T15:50:30;21.91;65.95
66035;HTU21D;52805;51.074;5.842;2022-09-09T15:52:59;21.80;66.43
66035;HTU21D;52805;51.074;5.842;2022-09-09T15:55:24;21.91;66.85
66035;HTU21D;52805;51.074;5.842;2022-09-09T15:57:51;22.12;66.49
66035;HTU21D;52805;51.074;5.842;2022-09-09T16:00:19;22.19;65.82
66035;HTU21D;52805;51.074;5.842;2022-09-09T16:02:46;22.07;65.40
66035;HTU21D;52805;51.074;5.842;2022-09-09T16:05:12;21.98;65.72
66035;HTU21D;52805;51.074;5.842;2022-09-09T16:07:38;21.89;65.82
66035;HTU21D;52805;51.074;5.842;2022-09-09T16:10:05;21.77;66.36
66035;HTU21D;52805;51.074;5.842;2022-09-09T16:12:31;21.74;66.27
66035;HTU21D;52805;51.074;5.842;2022-09-09T16:14:57;21.66;66.49
66035;HTU21D;52805;51.074;5.842;2022-09-09T16:17:22;21.64;66.47
66035;HTU21D;52805;51.074;5.842;2022-09-09T16:19:48;21.64;66.27
66035;HTU21D;52805;51.074;5.842;2022-09-09T16:22:13;21.55;66.65
66035;HTU21D;52805;51.074;5.842;2022-09-09T16:24:40;21.54;66.45
66035;HTU21D;52805;51.074;5.842;2022-09-09T16:27:06;21.50;66.45
66035;HTU21D;52805;51.074;5.842;2022-09-09T16:29:32;21.52;66.34
66035;HTU21D;52805;51.074;5.842;2022-09-09T16:31:58;21.45;66.69
66035;HTU21D;52805;51.074;5.842;2022-09-09T16:34:25;21.54;66.80
66035;HTU21D;52805;51.074;5.842;2022-09-09T16:36:51;21.62;66.65
66035;HTU21D;52805;51.074;5.842;2022-09-09T16:39:19;21.67;66.72
66035;HTU21D;52805;51.074;5.842;2022-09-09T16:41:46;21.64;66.47
66035;HTU21D;52805;51.074;5.842;2022-09-09T16:44:15;21.54;66.56
66035;HTU21D;52805;51.074;5.842;2022-09-09T16:46:43;21.46;66.70
66035;HTU21D;52805;51.074;5.842;2022-09-09T16:49:12;21.32;66.69
66035;HTU21D;52805;51.074;5.842;2022-09-09T16:51:41;21.14;66.66
66035;HTU21D;52805;51.074;5.842;2022-09-09T16:54:08;21.04;67.12
66035;HTU21D;52805;51.074;5.842;2022-09-09T16:56:37;20.92;67.25
66035;HTU21D;52805;51.074;5.842;2022-09-09T16:59:07;20.84;67.52
66035;HTU21D;52805;51.074;5.842;2022-09-09T17:01:36;20.73;67.73
66035;HTU21D;52805;51.074;5.842;2022-09-09T17:04:17;20.69;67.98
66035;HTU21D;52805;51.074;5.842;2022-09-09T17:06:48;20.69;67.68
66035;HTU21D;52805;51.074;5.842;2022-09-09T17:09:15;20.61;67.50
66035;HTU21D;52805;51.074;5.842;2022-09-09T17:11:41;20.49;67.44
66035;HTU21D;52805;51.074;5.842;2022-09-09T17:14:10;20.39;67.67
66035;HTU21D;52805;51.074;5.842;2022-09-09T17:16:36;20.32;67.87
66035;HTU21D;52805;51.074;5.842;2022-09-09T17:19:05;20.28;67.91
66035;HTU21D;52805;51.074;5.842;2022-09-09T17:21:32;20.22;68.18
66035;HTU21D;52805;51.074;5.842;2022-09-09T17:23:59;20.15;68.43
66035;HTU21D;52805;51.074;5.842;2022-09-09T17:26:29;20.11;68.78
66035;HTU21D;52805;51.074;5.842;2022-09-09T17:28:56;20.02;69.08
66035;HTU21D;52805;51.074;5.842;2022-09-09T17:31:24;19.99;69.29
66035;HTU21D;52805;51.074;5.842;2022-09-09T17:33:51;19.91;69.55
66035;HTU21D;52805;51.074;5.842;2022-09-09T17:36:30;19.87;69.89
66035;HTU21D;52805;51.074;5.842;2022-09-09T17:38:56;19.87;70.02
66035;HTU21D;52805;51.074;5.842;2022-09-09T17:41:25;19.81;70.29